sensor_id;sensor_type;location;lat;lon;timestamp;temperature;humidity
7700;DHT22;3892;47.794;19.126;2023-03-23T00:01:31;16.00;36.50
7700;DHT22;3892;47.794;19.126;2023-03-23T00:04:03;15.90;36.30
7700;DHT22;3892;47.794;19.126;2023-03-23T00:06:30;15.80;36.40
7700;DHT22;3892;47.794;19.126;2023-03-23T00:08:59;15.80;36.50
7700;DHT22;3892;47.794;19.126;2023-03-23T00:11:30;15.80;36.40
7700;DHT22;3892;47.794;19.126;2023-03-23T00:14:00;15.80;36.30
7700;DHT22;3892;47.794;19.126;2023-03-23T00:16:30;15.80;36.50
7700;DHT22;3892;47.794;19.126;2023-03-23T00:18:59;15.80;36.50
7700;DHT22;3892;47.794;19.126;2023-03-23T00:21:29;15.80;36.10
7700;DHT22;3892;47.794;19.126;2023-03-23T00:24:02;15.80;36.30
7700;DHT22;3892;47.794;19.126;2023-03-23T00:26:29;15.80;35.60
7700;DHT22;3892;47.794;19.126;2023-03-23T00:29:01;15.80;35.40
7700;DHT22;3892;47.794;19.126;2023-03-23T00:31:29;15.80;35.40
7700;DHT22;3892;47.794;19.126;2023-03-23T00:33:58;15.80;35.50
7700;DHT22;3892;47.794;19.126;2023-03-23T00:36:27;15.70;35.70
7700;DHT22;3892;47.794;19.126;2023-03-23T00:38:55;15.70;35.60
7700;DHT22;3892;47.794;19.126;2023-03-23T00:41:25;15.70;35.40
7700;DHT22;3892;47.794;19.126;2023-03-23T00:43:54;15.60;35.20
7700;DHT22;3892;47.794;19.126;2023-03-23T00:46:24;15.60;35.30
7700;DHT22;3892;47.794;19.126;2023-03-23T00:48:51;15.50;35.40
7700;DHT22;3892;47.794;19.126;2023-03-23T00:51:19;15.50;35.70
7700;DHT22;3892;47.794;19.126;2023-03-23T00:53:47;15.40;35.80
7700;DHT22;3892;47.794;19.126;2023-03-23T00:56:15;15.30;36.10
7700;DHT22;3892;47.794;19.126;2023-03-23T00:58:42;15.30;36.40
7700;DHT22;3892;47.794;19.126;2023-03-23T01:01:09;15.20;36.30
7700;DHT22;3892;47.794;19.126;2023-03-23T01:03:38;15.20;36.60
7700;DHT22;3892;47.794;19.126;2023-03-23T01:06:07;15.30;36.50
7700;DHT22;3892;47.794;19.126;2023-03-23T01:08:42;15.30;36.20
7700;DHT22;3892;47.794;19.126;2023-03-23T01:11:13;15.30;36.00
7700;DHT22;3892;47.794;19.126;2023-03-23T01:13:41;15.30;36.00
7700;DHT22;3892;47.794;19.126;2023-03-23T01:16:09;15.30;36.10
7700;DHT22;3892;47.794;19.126;2023-03-23T01:18:37;15.30;36.00
7700;DHT22;3892;47.794;19.126;2023-03-23T01:21:07;15.30;35.90
7700;DHT22;3892;47.794;19.126;2023-03-23T01:23:34;15.30;35.80
7700;DHT22;3892;47.794;19.126;2023-03-23T01:26:05;15.30;35.80
7700;DHT22;3892;47.794;19.126;2023-03-23T01:28:33;15.30;35.90
7700;DHT22;3892;47.794;19.126;2023-03-23T01:31:01;15.30;35.90
7700;DHT22;3892;47.794;19.126;2023-03-23T01:33:28;15.30;35.90
7700;DHT22;3892;47.794;19.126;2023-03-23T01:35:57;15.30;35.70
7700;DHT22;3892;47.794;19.126;2023-03-23T01:38:24;15.20;35.70
7700;DHT22;3892;47.794;19.126;2023-03-23T01:40:51;15.20;35.80
7700;DHT22;3892;47.794;19.126;2023-03-23T01:43:19;15.10;36.50
7700;DHT22;3892;47.794;19.126;2023-03-23T01:45:46;15.10;36.20
7700;DHT22;3892;47.794;19.126;2023-03-23T01:48:16;15.10;36.10
7700;DHT22;3892;47.794;19.126;2023-03-23T01:50:53;15.10;35.70
7700;DHT22;3892;47.794;19.126;2023-03-23T01:53:27;15.10;35.50
7700;DHT22;3892;47.794;19.126;2023-03-23T01:55:56;15.10;35.50
7700;DHT22;3892;47.794;19.126;2023-03-23T01:58:27;15.10;35.30
7700;DHT22;3892;47.794;19.126;2023-03-23T02:00:57;15.10;35.20
7700;DHT22;3892;47.794;19.126;2023-03-23T02:03:27;15.10;35.30
7700;DHT22;3892;47.794;19.126;2023-03-23T02:05:57;15.10;35.30
7700;DHT22;3892;47.794;19.126;2023-03-23T02:08:36;15.00;35.20
7700;DHT22;3892;47.794;19.126;2023-03-23T02:11:12;15.10;35.10
7700;DHT22;3892;47.794;19.126;2023-03-23T02:13:39;15.00;34.80
7700;DHT22;3892;47.794;19.126;2023-03-23T02:16:09;15.00;34.60
7700;DHT22;3892;47.794;19.126;2023-03-23T02:18:46;15.00;34.50
7700;DHT22;3892;47.794;19.126;2023-03-23T02:21:39;15.00;34.40
7700;DHT22;3892;47.794;19.126;2023-03-23T02:27:09;14.90;34.30
7700;DHT22;3892;47.794;19.126;2023-03-23T02:32:55;14.90;34.40
7700;DHT22;3892;47.794;19.126;2023-03-23T02:35:31;14.80;34.50
7700;DHT22;3892;47.794;19.126;2023-03-23T02:38:03;14.80;34.60
7700;DHT22;3892;47.794;19.126;2023-03-23T02:40:35;14.70;34.70
7700;DHT22;3892;47.794;19.126;2023-03-23T02:43:07;14.70;34.80
7700;DHT22;3892;47.794;19.126;2023-03-23T02:45:36;14.70;34.90
7700;DHT22;3892;47.794;19.126;2023-03-23T02:48:05;14.70;34.80
7700;DHT22;3892;47.794;19.126;2023-03-23T02:50:35;14.60;34.90
7700;DHT22;3892;47.794;19.126;2023-03-23T02:53:07;14.60;35.10
7700;DHT22;3892;47.794;19.126;2023-03-23T02:55:36;14.60;35.20
7700;DHT22;3892;47.794;19.126;2023-03-23T02:58:11;14.60;35.20
7700;DHT22;3892;47.794;19.126;2023-03-23T03:00:41;14.60;35.30
7700;DHT22;3892;47.794;19.126;2023-03-23T03:03:13;14.60;35.30
7700;DHT22;3892;47.794;19.126;2023-03-23T03:05:48;14.60;35.40
7700;DHT22;3892;47.794;19.126;2023-03-23T03:08:24;14.60;35.40
7700;DHT22;3892;47.794;19.126;2023-03-23T03:11:00;14.60;35.50
7700;DHT22;3892;47.794;19.126;2023-03-23T03:13:35;14.60;35.70
7700;DHT22;3892;47.794;19.126;2023-03-23T03:16:13;14.60;35.80
7700;DHT22;3892;47.794;19.126;2023-03-23T03:18:46;14.60;35.60
7700;DHT22;3892;47.794;19.126;2023-03-23T03:21:17;14.60;35.60
7700;DHT22;3892;47.794;19.126;2023-03-23T03:23:56;14.60;35.20
7700;DHT22;3892;47.794;19.126;2023-03-23T03:26:27;14.60;34.80
7700;DHT22;3892;47.794;19.126;2023-03-23T03:29:01;14.60;34.80
7700;DHT22;3892;47.794;19.126;2023-03-23T03:31:33;14.60;34.80
7700;DHT22;3892;47.794;19.126;2023-03-23T03:34:04;14.50;34.60
7700;DHT22;3892;47.794;19.126;2023-03-23T03:36:36;14.50;34.80
7700;DHT22;3892;47.794;19.126;2023-03-23T03:39:09;14.50;34.90
7700;DHT22;3892;47.794;19.126;2023-03-23T03:41:38;14.40;35.20
7700;DHT22;3892;47.794;19.126;2023-03-23T03:44:06;14.40;35.20
7700;DHT22;3892;47.794;19.126;2023-03-23T03:46:34;14.40;35.40
7700;DHT22;3892;47.794;19.126;2023-03-23T03:49:03;14.30;35.50
7700;DHT22;3892;47.794;19.126;2023-03-23T03:51:33;14.30;35.40
7700;DHT22;3892;47.794;19.126;2023-03-23T03:54:03;14.30;35.00
7700;DHT22;3892;47.794;19.126;2023-03-23T03:56:30;14.30;34.90
7700;DHT22;3892;47.794;19.126;2023-03-23T03:59:21;14.30;35.00
7700;DHT22;3892;47.794;19.126;2023-03-23T04:02:08;14.30;35.00
7700;DHT22;3892;47.794;19.126;2023-03-23T04:04:39;14.30;35.10
7700;DHT22;3892;47.794;19.126;2023-03-23T04:07:07;14.20;35.10
7700;DHT22;3892;47.794;19.126;2023-03-23T04:09:40;14.20;35.40
7700;DHT22;3892;47.794;19.126;2023-03-23T04:12:08;14.20;35.10
7700;DHT22;3892;47.794;19.126;2023-03-23T04:14:54;14.20;35.00
7700;DHT22;3892;47.794;19.126;2023-03-23T04:17:25;14.10;35.20
7700;DHT22;3892;47.794;19.126;2023-03-23T04:19:52;14.10;36.00
7700;DHT22;3892;47.794;19.126;2023-03-23T04:22:23;14.10;35.50
7700;DHT22;3892;47.794;19.126;2023-03-23T04:24:59;14.10;35.50
7700;DHT22;3892;47.794;19.126;2023-03-23T04:27:32;14.10;35.50
7700;DHT22;3892;47.794;19.126;2023-03-23T04:30:02;14.00;35.80
7700;DHT22;3892;47.794;19.126;2023-03-23T04:32:49;14.00;36.10
7700;DHT22;3892;47.794;19.126;2023-03-23T04:35:22;14.00;36.00
7700;DHT22;3892;47.794;19.126;2023-03-23T04:38:02;14.00;36.10
7700;DHT22;3892;47.794;19.126;2023-03-23T04:40:30;14.00;36.20
7700;DHT22;3892;47.794;19.126;2023-03-23T04:43:11;14.00;36.10
7700;DHT22;3892;47.794;19.126;2023-03-23T04:46:00;14.10;35.80
7700;DHT22;3892;47.794;19.126;2023-03-23T04:48:30;14.10;35.50
7700;DHT22;3892;47.794;19.126;2023-03-23T04:51:19;14.10;35.70
7700;DHT22;3892;47.794;19.126;2023-03-23T04:53:49;14.00;35.80
7700;DHT22;3892;47.794;19.126;2023-03-23T04:56:18;14.00;36.00
7700;DHT22;3892;47.794;19.126;2023-03-23T04:58:45;14.00;36.00
7700;DHT22;3892;47.794;19.126;2023-03-23T05:01:13;14.00;36.30
7700;DHT22;3892;47.794;19.126;2023-03-23T05:03:50;14.00;36.50
7700;DHT22;3892;47.794;19.126;2023-03-23T05:06:17;14.00;36.50
7700;DHT22;3892;47.794;19.126;2023-03-23T05:08:45;14.10;36.40
7700;DHT22;3892;47.794;19.126;2023-03-23T05:11:12;14.10;36.20
7700;DHT22;3892;47.794;19.126;2023-03-23T05:13:43;14.10;36.10
7700;DHT22;3892;47.794;19.126;2023-03-23T05:16:11;14.20;36.10
7700;DHT22;3892;47.794;19.126;2023-03-23T05:18:40;14.20;36.00
7700;DHT22;3892;47.794;19.126;2023-03-23T05:21:11;14.10;36.00
7700;DHT22;3892;47.794;19.126;2023-03-23T05:23:43;14.00;36.50
7700;DHT22;3892;47.794;19.126;2023-03-23T05:26:16;13.90;37.00
7700;DHT22;3892;47.794;19.126;2023-03-23T05:28:45;13.90;37.40
7700;DHT22;3892;47.794;19.126;2023-03-23T05:31:18;13.90;37.50
7700;DHT22;3892;47.794;19.126;2023-03-23T05:33:46;13.80;37.60
7700;DHT22;3892;47.794;19.126;2023-03-23T05:36:24;13.90;37.80
7700;DHT22;3892;47.794;19.126;2023-03-23T05:39:14;14.00;37.90
7700;DHT22;3892;47.794;19.126;2023-03-23T05:41:57;14.10;37.90
7700;DHT22;3892;47.794;19.126;2023-03-23T05:44:33;14.20;37.70
7700;DHT22;3892;47.794;19.126;2023-03-23T05:47:00;14.30;37.60
7700;DHT22;3892;47.794;19.126;2023-03-23T05:49:28;14.30;37.40
7700;DHT22;3892;47.794;19.126;2023-03-23T05:51:55;14.30;37.20
7700;DHT22;3892;47.794;19.126;2023-03-23T05:54:22;14.30;37.20
7700;DHT22;3892;47.794;19.126;2023-03-23T05:56:50;14.30;37.50
7700;DHT22;3892;47.794;19.126;2023-03-23T05:59:36;14.20;37.20
7700;DHT22;3892;47.794;19.126;2023-03-23T06:02:07;14.30;37.30
7700;DHT22;3892;47.794;19.126;2023-03-23T06:04:34;14.20;37.20
7700;DHT22;3892;47.794;19.126;2023-03-23T06:07:12;14.30;37.30
7700;DHT22;3892;47.794;19.126;2023-03-23T06:09:46;14.40;37.20
7700;DHT22;3892;47.794;19.126;2023-03-23T06:12:22;14.40;37.10
7700;DHT22;3892;47.794;19.126;2023-03-23T06:15:10;14.50;37.00
7700;DHT22;3892;47.794;19.126;2023-03-23T06:18:10;14.60;37.10
7700;DHT22;3892;47.794;19.126;2023-03-23T06:20:57;14.70;36.90
7700;DHT22;3892;47.794;19.126;2023-03-23T06:23:38;14.80;36.70
7700;DHT22;3892;47.794;19.126;2023-03-23T06:26:08;14.80;36.30
7700;DHT22;3892;47.794;19.126;2023-03-23T06:28:40;14.90;36.40
7700;DHT22;3892;47.794;19.126;2023-03-23T06:31:09;15.10;36.70
7700;DHT22;3892;47.794;19.126;2023-03-23T06:33:38;15.20;36.30
7700;DHT22;3892;47.794;19.126;2023-03-23T06:36:37;15.20;36.10
7700;DHT22;3892;47.794;19.126;2023-03-23T06:39:22;15.40;36.60
7700;DHT22;3892;47.794;19.126;2023-03-23T06:42:18;15.50;36.50
7700;DHT22;3892;47.794;19.126;2023-03-23T06:44:54;15.50;36.10
7700;DHT22;3892;47.794;19.126;2023-03-23T06:47:25;15.60;36.10
7700;DHT22;3892;47.794;19.126;2023-03-23T06:49:52;15.60;35.80
7700;DHT22;3892;47.794;19.126;2023-03-23T06:52:24;15.60;35.80
7700;DHT22;3892;47.794;19.126;2023-03-23T06:54:54;15.70;36.10
7700;DHT22;3892;47.794;19.126;2023-03-23T06:57:22;15.70;36.00
7700;DHT22;3892;47.794;19.126;2023-03-23T06:59:51;15.70;35.80
7700;DHT22;3892;47.794;19.126;2023-03-23T07:02:18;15.80;35.70
7700;DHT22;3892;47.794;19.126;2023-03-23T07:04:51;15.80;35.30
7700;DHT22;3892;47.794;19.126;2023-03-23T07:07:22;15.90;35.70
7700;DHT22;3892;47.794;19.126;2023-03-23T07:10:07;15.90;35.50
7700;DHT22;3892;47.794;19.126;2023-03-23T07:12:34;16.00;35.10
7700;DHT22;3892;47.794;19.126;2023-03-23T07:15:05;16.10;36.10
7700;DHT22;3892;47.794;19.126;2023-03-23T07:17:37;16.20;35.40
7700;DHT22;3892;47.794;19.126;2023-03-23T07:20:26;16.30;35.00
7700;DHT22;3892;47.794;19.126;2023-03-23T07:22:54;16.40;34.70
7700;DHT22;3892;47.794;19.126;2023-03-23T07:25:44;16.40;34.60
7700;DHT22;3892;47.794;19.126;2023-03-23T07:28:16;16.50;35.00
7700;DHT22;3892;47.794;19.126;2023-03-23T07:30:44;16.50;34.90
7700;DHT22;3892;47.794;19.126;2023-03-23T07:33:11;16.60;34.30
7700;DHT22;3892;47.794;19.126;2023-03-23T07:35:40;16.60;34.10
7700;DHT22;3892;47.794;19.126;2023-03-23T07:38:11;16.60;34.10
7700;DHT22;3892;47.794;19.126;2023-03-23T07:40:40;16.70;34.30
7700;DHT22;3892;47.794;19.126;2023-03-23T07:43:12;16.70;34.00
7700;DHT22;3892;47.794;19.126;2023-03-23T07:46:00;16.70;34.30
7700;DHT22;3892;47.794;19.126;2023-03-23T07:48:36;16.80;34.70
7700;DHT22;3892;47.794;19.126;2023-03-23T07:51:06;16.80;35.00
7700;DHT22;3892;47.794;19.126;2023-03-23T07:53:34;16.80;34.40
7700;DHT22;3892;47.794;19.126;2023-03-23T07:56:16;16.80;34.90
7700;DHT22;3892;47.794;19.126;2023-03-23T07:58:50;16.90;35.30
7700;DHT22;3892;47.794;19.126;2023-03-23T08:01:19;17.00;34.80
7700;DHT22;3892;47.794;19.126;2023-03-23T08:04:06;17.10;34.60
7700;DHT22;3892;47.794;19.126;2023-03-23T08:06:52;17.20;34.70
7700;DHT22;3892;47.794;19.126;2023-03-23T08:09:32;17.20;34.60
7700;DHT22;3892;47.794;19.126;2023-03-23T08:12:16;17.40;34.50
7700;DHT22;3892;47.794;19.126;2023-03-23T08:15:02;17.40;34.70
7700;DHT22;3892;47.794;19.126;2023-03-23T08:17:47;17.50;34.90
7700;DHT22;3892;47.794;19.126;2023-03-23T08:20:33;17.60;34.40
7700;DHT22;3892;47.794;19.126;2023-03-23T08:23:25;17.60;34.40
7700;DHT22;3892;47.794;19.126;2023-03-23T08:26:11;17.70;34.60
7700;DHT22;3892;47.794;19.126;2023-03-23T08:29:01;17.80;34.70
7700;DHT22;3892;47.794;19.126;2023-03-23T08:31:57;17.90;34.70
7700;DHT22;3892;47.794;19.126;2023-03-23T08:34:43;18.10;34.70
7700;DHT22;3892;47.794;19.126;2023-03-23T08:37:29;18.20;35.00
7700;DHT22;3892;47.794;19.126;2023-03-23T08:40:16;18.30;35.40
7700;DHT22;3892;47.794;19.126;2023-03-23T08:43:11;18.50;35.00
7700;DHT22;3892;47.794;19.126;2023-03-23T08:46:01;18.60;34.70
7700;DHT22;3892;47.794;19.126;2023-03-23T08:48:55;18.80;34.90
7700;DHT22;3892;47.794;19.126;2023-03-23T08:51:41;19.00;34.90
7700;DHT22;3892;47.794;19.126;2023-03-23T08:54:24;19.20;34.20
7700;DHT22;3892;47.794;19.126;2023-03-23T08:57:17;19.30;33.50
7700;DHT22;3892;47.794;19.126;2023-03-23T09:00:10;19.50;33.40
7700;DHT22;3892;47.794;19.126;2023-03-23T09:03:00;19.60;33.60
7700;DHT22;3892;47.794;19.126;2023-03-23T09:05:39;19.80;33.40
7700;DHT22;3892;47.794;19.126;2023-03-23T09:08:23;19.80;33.00
7700;DHT22;3892;47.794;19.126;2023-03-23T09:10:50;20.00;33.40
7700;DHT22;3892;47.794;19.126;2023-03-23T09:13:19;20.10;33.50
7700;DHT22;3892;47.794;19.126;2023-03-23T09:15:46;20.20;32.90
7700;DHT22;3892;47.794;19.126;2023-03-23T09:18:13;20.30;32.80
7700;DHT22;3892;47.794;19.126;2023-03-23T09:20:40;20.40;33.20
7700;DHT22;3892;47.794;19.126;2023-03-23T09:23:07;20.50;31.50
7700;DHT22;3892;47.794;19.126;2023-03-23T09:25:35;20.60;31.10
7700;DHT22;3892;47.794;19.126;2023-03-23T09:28:03;20.70;31.30
7700;DHT22;3892;47.794;19.126;2023-03-23T09:30:32;20.90;31.30
7700;DHT22;3892;47.794;19.126;2023-03-23T09:33:02;21.00;31.60
7700;DHT22;3892;47.794;19.126;2023-03-23T09:35:30;21.20;31.00
7700;DHT22;3892;47.794;19.126;2023-03-23T09:38:00;21.30;30.40
7700;DHT22;3892;47.794;19.126;2023-03-23T09:40:30;21.30;30.00
7700;DHT22;3892;47.794;19.126;2023-03-23T09:43:25;21.40;30.20
7700;DHT22;3892;47.794;19.126;2023-03-23T09:46:04;21.50;30.20
7700;DHT22;3892;47.794;19.126;2023-03-23T09:48:40;21.60;29.70
7700;DHT22;3892;47.794;19.126;2023-03-23T09:51:17;21.60;29.70
7700;DHT22;3892;47.794;19.126;2023-03-23T09:53:52;21.60;29.70
7700;DHT22;3892;47.794;19.126;2023-03-23T09:56:23;21.70;29.60
7700;DHT22;3892;47.794;19.126;2023-03-23T09:58:56;21.70;29.90
7700;DHT22;3892;47.794;19.126;2023-03-23T10:01:27;21.80;30.00
7700;DHT22;3892;47.794;19.126;2023-03-23T10:04:01;21.80;29.50
7700;DHT22;3892;47.794;19.126;2023-03-23T10:06:30;21.80;29.70
7700;DHT22;3892;47.794;19.126;2023-03-23T10:08:58;21.70;29.70
7700;DHT22;3892;47.794;19.126;2023-03-23T10:11:35;21.60;29.50
7700;DHT22;3892;47.794;19.126;2023-03-23T10:14:14;21.70;29.90
7700;DHT22;3892;47.794;19.126;2023-03-23T10:16:51;21.60;29.90
7700;DHT22;3892;47.794;19.126;2023-03-23T10:19:24;21.60;29.60
7700;DHT22;3892;47.794;19.126;2023-03-23T10:21:56;21.50;29.70
7700;DHT22;3892;47.794;19.126;2023-03-23T10:24:29;21.60;29.70
7700;DHT22;3892;47.794;19.126;2023-03-23T10:27:06;21.60;29.60
7700;DHT22;3892;47.794;19.126;2023-03-23T10:29:37;21.50;29.50
7700;DHT22;3892;47.794;19.126;2023-03-23T10:32:12;21.40;29.50
7700;DHT22;3892;47.794;19.126;2023-03-23T10:34:44;21.20;29.40
7700;DHT22;3892;47.794;19.126;2023-03-23T10:37:16;21.20;29.40
7700;DHT22;3892;47.794;19.126;2023-03-23T10:39:47;21.20;29.50
7700;DHT22;3892;47.794;19.126;2023-03-23T10:42:24;21.40;29.90
7700;DHT22;3892;47.794;19.126;2023-03-23T10:44:52;21.40;29.60
7700;DHT22;3892;47.794;19.126;2023-03-23T10:47:20;21.40;29.50
7700;DHT22;3892;47.794;19.126;2023-03-23T10:49:50;21.40;29.40
7700;DHT22;3892;47.794;19.126;2023-03-23T10:52:27;21.60;29.70
7700;DHT22;3892;47.794;19.126;2023-03-23T10:54:56;21.70;29.80
7700;DHT22;3892;47.794;19.126;2023-03-23T10:57:25;21.70;29.60
7700;DHT22;3892;47.794;19.126;2023-03-23T10:59:59;21.70;29.40
7700;DHT22;3892;47.794;19.126;2023-03-23T11:02:28;21.60;29.60
7700;DHT22;3892;47.794;19.126;2023-03-23T11:04:59;21.60;29.50
7700;DHT22;3892;47.794;19.126;2023-03-23T11:07:29;21.60;29.40
7700;DHT22;3892;47.794;19.126;2023-03-23T11:10:07;21.60;29.50
7700;DHT22;3892;47.794;19.126;2023-03-23T11:12:35;21.60;29.50
7700;DHT22;3892;47.794;19.126;2023-03-23T11:15:21;21.60;29.70
7700;DHT22;3892;47.794;19.126;2023-03-23T11:18:01;21.70;29.80
7700;DHT22;3892;47.794;19.126;2023-03-23T11:20:35;21.70;29.90
7700;DHT22;3892;47.794;19.126;2023-03-23T11:23:09;21.70;29.70
7700;DHT22;3892;47.794;19.126;2023-03-23T11:25:52;21.90;29.70
7700;DHT22;3892;47.794;19.126;2023-03-23T11:28:20;21.90;29.70
7700;DHT22;3892;47.794;19.126;2023-03-23T11:30:47;22.00;29.70
7700;DHT22;3892;47.794;19.126;2023-03-23T11:33:17;22.10;29.80
7700;DHT22;3892;47.794;19.126;2023-03-23T11:35:45;22.30;29.90
7700;DHT22;3892;47.794;19.126;2023-03-23T11:38:17;22.40;29.80
7700;DHT22;3892;47.794;19.126;2023-03-23T11:40:48;22.40;29.60
7700;DHT22;3892;47.794;19.126;2023-03-23T11:43:19;22.50;29.60
7700;DHT22;3892;47.794;19.126;2023-03-23T11:45:53;22.60;29.70
7700;DHT22;3892;47.794;19.126;2023-03-23T11:48:27;22.70;29.80
7700;DHT22;3892;47.794;19.126;2023-03-23T11:50:59;22.90;29.90
7700;DHT22;3892;47.794;19.126;2023-03-23T11:53:37;23.00;30.00
7700;DHT22;3892;47.794;19.126;2023-03-23T11:56:12;23.20;29.70
7700;DHT22;3892;47.794;19.126;2023-03-23T11:58:42;23.40;29.80
7700;DHT22;3892;47.794;19.126;2023-03-23T12:01:18;23.60;29.80
7700;DHT22;3892;47.794;19.126;2023-03-23T12:04:03;23.70;29.60
7700;DHT22;3892;47.794;19.126;2023-03-23T12:06:38;24.00;29.80
7700;DHT22;3892;47.794;19.126;2023-03-23T12:09:17;24.00;29.50
7700;DHT22;3892;47.794;19.126;2023-03-23T12:11:58;24.20;29.40
7700;DHT22;3892;47.794;19.126;2023-03-23T12:14:34;24.20;29.20
7700;DHT22;3892;47.794;19.126;2023-03-23T12:17:17;24.20;29.40
7700;DHT22;3892;47.794;19.126;2023-03-23T12:19:56;24.10;29.40
7700;DHT22;3892;47.794;19.126;2023-03-23T12:22:38;24.00;29.10
7700;DHT22;3892;47.794;19.126;2023-03-23T12:25:32;24.10;29.30
7700;DHT22;3892;47.794;19.126;2023-03-23T12:28:05;24.20;29.40
7700;DHT22;3892;47.794;19.126;2023-03-23T12:30:38;24.30;29.40
7700;DHT22;3892;47.794;19.126;2023-03-23T12:33:18;24.40;29.30
7700;DHT22;3892;47.794;19.126;2023-03-23T12:35:59;24.50;29.40
7700;DHT22;3892;47.794;19.126;2023-03-23T12:38:48;24.60;29.50
7700;DHT22;3892;47.794;19.126;2023-03-23T12:41:20;24.70;29.00
7700;DHT22;3892;47.794;19.126;2023-03-23T12:43:52;24.70;29.10
7700;DHT22;3892;47.794;19.126;2023-03-23T12:49:22;24.80;29.00
7700;DHT22;3892;47.794;19.126;2023-03-23T12:51:58;24.80;29.00
7700;DHT22;3892;47.794;19.126;2023-03-23T12:54:30;24.80;29.10
7700;DHT22;3892;47.794;19.126;2023-03-23T12:57:02;24.90;28.90
7700;DHT22;3892;47.794;19.126;2023-03-23T12:59:38;24.80;28.50
7700;DHT22;3892;47.794;19.126;2023-03-23T13:02:13;25.00;29.00
7700;DHT22;3892;47.794;19.126;2023-03-23T13:04:45;25.00;28.70
7700;DHT22;3892;47.794;19.126;2023-03-23T13:07:18;25.10;28.60
7700;DHT22;3892;47.794;19.126;2023-03-23T13:09:52;25.30;28.70
7700;DHT22;3892;47.794;19.126;2023-03-23T13:12:21;25.40;28.50
7700;DHT22;3892;47.794;19.126;2023-03-23T13:14:56;25.40;28.20
7700;DHT22;3892;47.794;19.126;2023-03-23T13:17:36;25.40;28.20
7700;DHT22;3892;47.794;19.126;2023-03-23T13:20:18;25.40;28.10
7700;DHT22;3892;47.794;19.126;2023-03-23T13:22:55;25.40;27.90
7700;DHT22;3892;47.794;19.126;2023-03-23T13:25:37;25.50;28.20
7700;DHT22;3892;47.794;19.126;2023-03-23T13:28:12;25.40;28.00
7700;DHT22;3892;47.794;19.126;2023-03-23T13:30:41;25.40;27.90
7700;DHT22;3892;47.794;19.126;2023-03-23T13:33:12;25.40;28.10
7700;DHT22;3892;47.794;19.126;2023-03-23T13:35:41;25.40;28.10
7700;DHT22;3892;47.794;19.126;2023-03-23T13:38:20;25.40;28.70
7700;DHT22;3892;47.794;19.126;2023-03-23T13:40:51;25.50;28.20
7700;DHT22;3892;47.794;19.126;2023-03-23T13:43:27;25.40;27.80
7700;DHT22;3892;47.794;19.126;2023-03-23T13:45:55;25.40;27.80
7700;DHT22;3892;47.794;19.126;2023-03-23T13:48:41;25.40;28.00
7700;DHT22;3892;47.794;19.126;2023-03-23T13:51:32;25.40;28.00
7700;DHT22;3892;47.794;19.126;2023-03-23T13:54:19;25.40;27.90
7700;DHT22;3892;47.794;19.126;2023-03-23T13:56:53;25.50;28.10
7700;DHT22;3892;47.794;19.126;2023-03-23T13:59:33;25.60;28.20
7700;DHT22;3892;47.794;19.126;2023-03-23T14:02:30;25.60;28.00
7700;DHT22;3892;47.794;19.126;2023-03-23T14:05:22;25.60;27.90
7700;DHT22;3892;47.794;19.126;2023-03-23T14:07:56;25.50;28.00
7700;DHT22;3892;47.794;19.126;2023-03-23T14:10:32;25.50;28.20
7700;DHT22;3892;47.794;19.126;2023-03-23T14:13:01;25.50;28.20
7700;DHT22;3892;47.794;19.126;2023-03-23T14:15:30;25.50;28.10
7700;DHT22;3892;47.794;19.126;2023-03-23T14:18:02;25.30;28.00
7700;DHT22;3892;47.794;19.126;2023-03-23T14:20:32;25.40;28.20
7700;DHT22;3892;47.794;19.126;2023-03-23T14:23:00;25.50;28.20
7700;DHT22;3892;47.794;19.126;2023-03-23T14:25:30;25.50;28.00
7700;DHT22;3892;47.794;19.126;2023-03-23T14:27:58;25.50;28.10
7700;DHT22;3892;47.794;19.126;2023-03-23T14:30:27;25.40;28.10
7700;DHT22;3892;47.794;19.126;2023-03-23T14:33:04;25.40;28.20
7700;DHT22;3892;47.794;19.126;2023-03-23T14:35:35;25.40;28.10
7700;DHT22;3892;47.794;19.126;2023-03-23T14:38:03;25.40;28.20
7700;DHT22;3892;47.794;19.126;2023-03-23T14:40:34;25.40;28.10
7700;DHT22;3892;47.794;19.126;2023-03-23T14:43:01;25.40;28.00
7700;DHT22;3892;47.794;19.126;2023-03-23T14:45:28;25.30;28.10
7700;DHT22;3892;47.794;19.126;2023-03-23T14:47:57;25.10;27.90
7700;DHT22;3892;47.794;19.126;2023-03-23T14:50:27;25.20;28.10
7700;DHT22;3892;47.794;19.126;2023-03-23T14:53:01;25.00;28.20
7700;DHT22;3892;47.794;19.126;2023-03-23T14:55:32;24.90;28.30
7700;DHT22;3892;47.794;19.126;2023-03-23T14:58:06;25.00;28.30
7700;DHT22;3892;47.794;19.126;2023-03-23T15:00:37;24.80;28.40
7700;DHT22;3892;47.794;19.126;2023-03-23T15:03:07;24.70;28.50
7700;DHT22;3892;47.794;19.126;2023-03-23T15:05:40;24.70;28.50
7700;DHT22;3892;47.794;19.126;2023-03-23T15:08:12;24.60;28.50
7700;DHT22;3892;47.794;19.126;2023-03-23T15:10:42;24.60;28.60
7700;DHT22;3892;47.794;19.126;2023-03-23T15:13:11;24.50;28.60
7700;DHT22;3892;47.794;19.126;2023-03-23T15:15:39;24.40;28.50
7700;DHT22;3892;47.794;19.126;2023-03-23T15:18:25;24.40;28.60
7700;DHT22;3892;47.794;19.126;2023-03-23T15:20:54;24.50;28.90
7700;DHT22;3892;47.794;19.126;2023-03-23T15:23:26;24.50;28.70
7700;DHT22;3892;47.794;19.126;2023-03-23T15:25:55;24.60;28.70
7700;DHT22;3892;47.794;19.126;2023-03-23T15:28:30;24.70;28.60
7700;DHT22;3892;47.794;19.126;2023-03-23T15:31:00;24.70;28.70
7700;DHT22;3892;47.794;19.126;2023-03-23T15:33:34;24.80;28.80
7700;DHT22;3892;47.794;19.126;2023-03-23T15:36:07;25.00;29.00
7700;DHT22;3892;47.794;19.126;2023-03-23T15:38:35;25.00;28.70
7700;DHT22;3892;47.794;19.126;2023-03-23T15:41:06;24.90;28.80
7700;DHT22;3892;47.794;19.126;2023-03-23T15:43:35;24.80;28.80
7700;DHT22;3892;47.794;19.126;2023-03-23T15:46:04;24.80;28.60
7700;DHT22;3892;47.794;19.126;2023-03-23T15:48:33;24.60;28.60
7700;DHT22;3892;47.794;19.126;2023-03-23T15:51:02;24.40;28.70
7700;DHT22;3892;47.794;19.126;2023-03-23T15:53:32;24.40;28.80
7700;DHT22;3892;47.794;19.126;2023-03-23T15:56:02;24.40;28.80
7700;DHT22;3892;47.794;19.126;2023-03-23T15:58:31;24.30;28.80
7700;DHT22;3892;47.794;19.126;2023-03-23T16:00:59;24.30;28.90
7700;DHT22;3892;47.794;19.126;2023-03-23T16:03:38;24.20;28.80
7700;DHT22;3892;47.794;19.126;2023-03-23T16:06:10;24.20;28.90
7700;DHT22;3892;47.794;19.126;2023-03-23T16:08:37;24.30;29.00
7700;DHT22;3892;47.794;19.126;2023-03-23T16:11:06;24.30;29.00
7700;DHT22;3892;47.794;19.126;2023-03-23T16:13:34;24.30;29.10
7700;DHT22;3892;47.794;19.126;2023-03-23T16:16:01;24.30;28.90
7700;DHT22;3892;47.794;19.126;2023-03-23T16:18:29;24.30;29.00
7700;DHT22;3892;47.794;19.126;2023-03-23T16:20:57;24.20;29.00
7700;DHT22;3892;47.794;19.126;2023-03-23T16:23:24;24.20;29.00
7700;DHT22;3892;47.794;19.126;2023-03-23T16:25:51;24.20;29.00
7700;DHT22;3892;47.794;19.126;2023-03-23T16:28:18;24.10;28.90
7700;DHT22;3892;47.794;19.126;2023-03-23T16:30:47;24.10;29.00
7700;DHT22;3892;47.794;19.126;2023-03-23T16:33:14;24.00;29.00
7700;DHT22;3892;47.794;19.126;2023-03-23T16:35:41;24.00;29.10